createdAt,value
2022-10-13T00:01:20.666Z,16.18
2022-10-13T00:03:48.508Z,16.19
2022-10-13T00:06:22.541Z,16.21
2022-10-13T00:08:49.652Z,16.20
2022-10-13T00:11:22.663Z,16.19
2022-10-13T00:13:50.940Z,16.19
2022-10-13T00:16:18.885Z,16.16
2022-10-13T00:18:45.942Z,16.14
2022-10-13T00:21:16.239Z,16.11
2022-10-13T00:23:45.918Z,16.09
2022-10-13T00:26:17.337Z,16.05
2022-10-13T00:28:53.017Z,15.99
2022-10-13T00:31:31.559Z,15.94
2022-10-13T00:34:00.317Z,15.91
2022-10-13T00:36:27.898Z,15.86
2022-10-13T00:38:55.037Z,15.84
2022-10-13T00:41:22.463Z,15.79
2022-10-13T00:43:54.978Z,15.73
2022-10-13T00:46:22.759Z,15.67
2022-10-13T00:49:02.557Z,15.61
2022-10-13T00:51:33.645Z,15.54
2022-10-13T00:54:03.637Z,15.49
2022-10-13T00:56:31.097Z,15.47
2022-10-13T00:59:00.327Z,15.41
2022-10-13T01:01:27.417Z,15.38
2022-10-13T01:03:54.465Z,15.39
2022-10-13T01:06:23.852Z,15.36
2022-10-13T01:08:51.521Z,15.33
2022-10-13T01:11:43.599Z,15.32
2022-10-13T01:14:15.698Z,15.27
2022-10-13T01:17:01.577Z,15.18
2022-10-13T01:20:05.977Z,15.14
2022-10-13T01:22:38.859Z,15.12
2022-10-13T01:25:27.318Z,14.96
2022-10-13T01:28:21.219Z,14.91
2022-10-13T01:31:06.297Z,14.86
2022-10-13T01:33:44.257Z,14.80
2022-10-13T01:36:39.098Z,14.77
2022-10-13T01:39:47.980Z,14.68
2022-10-13T01:42:20.583Z,14.72
2022-10-13T01:44:53.837Z,14.68
2022-10-13T01:47:23.158Z,14.63
2022-10-13T01:49:53.259Z,14.62
2022-10-13T01:52:24.017Z,14.59
2022-10-13T01:54:52.677Z,14.58
2022-10-13T01:57:32.637Z,14.54
2022-10-13T02:00:04.557Z,14.53
2022-10-13T02:02:49.017Z,14.53
2022-10-13T02:05:19.018Z,14.52
2022-10-13T02:07:57.897Z,14.50
2022-10-13T02:10:55.937Z,14.46
2022-10-13T02:13:26.946Z,14.44
2022-10-13T02:15:59.316Z,14.37
2022-10-13T02:18:31.598Z,14.32
2022-10-13T02:20:59.337Z,14.28
2022-10-13T02:23:27.556Z,14.24
2022-10-13T02:25:55.857Z,14.23
2022-10-13T02:28:22.967Z,14.16
2022-10-13T02:30:50.197Z,14.12
2022-10-13T02:33:17.661Z,13.99
2022-10-13T02:35:44.785Z,13.97
2022-10-13T02:38:12.126Z,13.97
2022-10-13T02:40:39.187Z,13.96
2022-10-13T02:43:06.305Z,13.96
2022-10-13T02:45:33.236Z,13.90
2022-10-13T02:48:00.328Z,13.92
2022-10-13T02:50:27.342Z,13.93
2022-10-13T02:52:56.739Z,13.96
2022-10-13T02:55:23.799Z,13.98
2022-10-13T02:57:56.696Z,13.99
2022-10-13T03:00:23.917Z,13.97
2022-10-13T03:02:50.978Z,14.00
2022-10-13T03:05:18.178Z,14.00
2022-10-13T03:07:45.226Z,13.98
2022-10-13T03:10:12.278Z,13.98
2022-10-13T03:12:39.259Z,13.96
2022-10-13T03:15:06.878Z,13.86
2022-10-13T03:17:33.838Z,13.84
2022-10-13T03:20:00.837Z,13.77
2022-10-13T03:22:27.857Z,13.73
2022-10-13T03:24:54.878Z,13.70
2022-10-13T03:27:21.857Z,13.65
2022-10-13T03:29:48.867Z,13.60
2022-10-13T03:32:17.045Z,13.56
2022-10-13T03:34:44.197Z,13.56
2022-10-13T03:37:11.157Z,13.56
2022-10-13T03:39:42.146Z,13.53
2022-10-13T03:42:10.786Z,13.48
2022-10-13T03:44:39.457Z,13.45
2022-10-13T03:47:07.339Z,13.44
2022-10-13T03:49:34.278Z,13.42
2022-10-13T03:52:01.281Z,13.39
2022-10-13T03:54:28.300Z,13.37
2022-10-13T03:56:55.264Z,13.29
2022-10-13T03:59:22.493Z,13.27
2022-10-13T04:01:49.596Z,13.22
2022-10-13T04:04:16.617Z,13.22
2022-10-13T04:06:46.038Z,13.11
2022-10-13T04:09:13.317Z,13.17
2022-10-13T04:11:40.298Z,13.21
2022-10-13T04:14:07.698Z,13.28
2022-10-13T04:16:35.268Z,13.26
2022-10-13T04:19:06.134Z,13.29
2022-10-13T04:21:34.172Z,13.22
2022-10-13T04:24:02.579Z,13.22
2022-10-13T04:26:32.734Z,13.23
2022-10-13T04:29:08.345Z,13.18
2022-10-13T04:31:36.022Z,13.16
2022-10-13T04:34:03.497Z,13.15
2022-10-13T04:36:30.629Z,13.15
2022-10-13T04:38:58.256Z,13.13
2022-10-13T04:41:26.382Z,13.12
2022-10-13T04:43:54.502Z,13.11
2022-10-13T04:46:27.509Z,13.09
2022-10-13T04:48:57.504Z,13.05
2022-10-13T04:51:31.980Z,13.02
2022-10-13T04:54:02.143Z,13.00
2022-10-13T04:56:29.860Z,12.98
2022-10-13T04:59:02.858Z,12.96
2022-10-13T05:01:30.186Z,12.92
2022-10-13T05:04:00.310Z,12.90
2022-10-13T05:06:30.337Z,12.90
2022-10-13T05:08:58.138Z,12.90
2022-10-13T05:11:26.998Z,12.86
2022-10-13T05:13:54.980Z,12.90
2022-10-13T05:16:23.942Z,12.90
2022-10-13T05:18:52.783Z,12.90
2022-10-13T05:21:25.257Z,12.91
2022-10-13T05:23:56.193Z,12.94
2022-10-13T05:26:29.437Z,12.95
2022-10-13T05:28:57.436Z,12.97
2022-10-13T05:31:26.842Z,12.96
2022-10-13T05:33:54.339Z,12.97
2022-10-13T05:36:34.378Z,12.94
2022-10-13T05:39:04.179Z,12.93
2022-10-13T05:41:32.085Z,12.88
2022-10-13T05:44:05.145Z,12.88
2022-10-13T05:46:32.425Z,12.88
2022-10-13T05:48:59.696Z,12.92
2022-10-13T05:51:43.917Z,12.93
2022-10-13T05:54:25.297Z,12.99
2022-10-13T05:57:16.928Z,13.06
2022-10-13T05:59:53.876Z,13.13
2022-10-13T06:02:24.566Z,13.19
2022-10-13T06:04:54.155Z,13.15
2022-10-13T06:07:21.346Z,13.22
2022-10-13T06:09:49.924Z,13.21
2022-10-13T06:12:17.161Z,13.27
2022-10-13T06:14:44.206Z,13.32
2022-10-13T06:17:11.732Z,13.36
2022-10-13T06:19:43.377Z,13.43
2022-10-13T06:22:10.316Z,13.49
2022-10-13T06:24:37.459Z,13.55
2022-10-13T06:27:08.241Z,13.58
2022-10-13T06:29:36.356Z,13.69
2022-10-13T06:32:03.516Z,13.77
2022-10-13T06:34:30.406Z,13.83
2022-10-13T06:36:58.376Z,13.93
2022-10-13T06:39:26.660Z,14.05
2022-10-13T06:41:55.502Z,14.16
2022-10-13T06:44:32.067Z,14.25
2022-10-13T06:47:03.378Z,14.36
2022-10-13T06:49:30.336Z,14.46
2022-10-13T06:51:57.348Z,14.51
2022-10-13T06:54:24.389Z,14.60
2022-10-13T06:56:52.096Z,14.66
2022-10-13T06:59:19.408Z,14.77
2022-10-13T07:01:47.606Z,14.93
2022-10-13T07:04:15.926Z,14.96
2022-10-13T07:06:42.946Z,15.01
2022-10-13T07:09:10.634Z,15.04
2022-10-13T07:11:37.511Z,15.19
2022-10-13T07:14:04.522Z,15.23
2022-10-13T07:16:32.043Z,15.29
2022-10-13T07:18:59.077Z,15.28
2022-10-13T07:21:26.485Z,15.38
2022-10-13T07:23:53.517Z,15.34
2022-10-13T07:26:20.809Z,15.45
2022-10-13T07:28:47.924Z,15.45
2022-10-13T07:31:19.003Z,15.48
2022-10-13T07:33:48.889Z,15.56
2022-10-13T07:36:17.699Z,15.64
2022-10-13T07:38:44.676Z,15.70
2022-10-13T07:41:13.001Z,15.79
2022-10-13T07:43:40.208Z,15.87
2022-10-13T07:46:08.421Z,15.93
2022-10-13T07:48:36.166Z,16.05
2022-10-13T07:51:08.447Z,16.10
2022-10-13T07:53:35.717Z,16.15
2022-10-13T07:56:04.337Z,16.22
2022-10-13T07:58:31.606Z,16.31
2022-10-13T08:01:00.607Z,16.38
2022-10-13T08:03:29.204Z,16.38
2022-10-13T08:05:58.427Z,16.46
2022-10-13T08:08:25.451Z,16.52
2022-10-13T08:13:39.517Z,16.68
2022-10-13T08:16:21.088Z,16.76
2022-10-13T08:18:48.890Z,16.89
2022-10-13T08:24:11.685Z,17.00
2022-10-13T08:26:39.105Z,17.10
2022-10-13T08:29:23.047Z,17.19
2022-10-13T08:31:53.015Z,17.33
2022-10-13T08:34:21.711Z,17.44
2022-10-13T08:36:49.045Z,17.44
2022-10-13T08:39:16.094Z,17.60
2022-10-13T08:41:44.345Z,17.71
2022-10-13T08:44:56.707Z,17.81
2022-10-13T08:47:12.508Z,17.86
2022-10-13T08:49:42.545Z,17.98
2022-10-13T08:52:49.478Z,18.13
2022-10-13T08:55:24.067Z,18.21
2022-10-13T08:57:51.363Z,18.31
2022-10-13T09:00:20.596Z,18.36
2022-10-13T09:02:49.984Z,18.56
2022-10-13T09:05:28.926Z,18.71
2022-10-13T09:08:09.446Z,18.82
2022-10-13T09:10:49.896Z,18.96
2022-10-13T09:13:22.566Z,19.11
2022-10-13T09:15:50.816Z,19.30
2022-10-13T09:18:17.579Z,19.46
2022-10-13T09:20:44.538Z,19.59
2022-10-13T09:23:14.498Z,19.69
2022-10-13T09:25:48.596Z,19.94
2022-10-13T09:28:27.317Z,20.07
2022-10-13T09:31:14.044Z,20.18
2022-10-13T09:33:41.693Z,20.16
2022-10-13T09:36:16.507Z,20.38
2022-10-13T09:39:05.642Z,20.64
2022-10-13T09:41:33.845Z,20.65
2022-10-13T09:44:13.360Z,20.88
2022-10-13T09:46:49.158Z,20.90
2022-10-13T09:49:37.980Z,21.12
2022-10-13T09:52:15.668Z,21.21
2022-10-13T09:54:47.169Z,21.21
2022-10-13T09:57:35.943Z,21.57
2022-10-13T10:00:17.757Z,21.74
2022-10-13T10:02:51.557Z,21.76
2022-10-13T10:05:26.446Z,21.83
2022-10-13T10:08:16.916Z,22.01
2022-10-13T10:10:44.815Z,22.17
2022-10-13T10:13:13.375Z,22.23
2022-10-13T10:16:04.696Z,22.30
2022-10-13T10:18:37.697Z,22.39
2022-10-13T10:21:26.627Z,22.46
2022-10-13T10:24:29.838Z,22.55
2022-10-13T10:27:26.065Z,22.59
2022-10-13T10:30:10.033Z,22.65
2022-10-13T10:33:24.786Z,22.83
2022-10-13T10:36:16.961Z,23.09
2022-10-13T10:38:52.996Z,23.12
2022-10-13T10:41:41.305Z,23.16
2022-10-13T10:44:33.831Z,23.24
2022-10-13T10:47:11.548Z,23.33
2022-10-13T10:49:41.590Z,23.42
2022-10-13T10:52:22.296Z,23.48
2022-10-13T10:55:24.466Z,23.57
2022-10-13T10:58:12.936Z,23.63
2022-10-13T11:13:18.665Z,23.22
2022-10-13T11:15:46.594Z,22.93
2022-10-13T11:19:08.175Z,23.03
2022-10-13T11:21:53.235Z,23.27
2022-10-13T11:24:41.670Z,23.46
2022-10-13T11:27:17.307Z,23.57
2022-10-13T11:29:47.408Z,23.61
2022-10-13T11:32:35.418Z,23.51
2022-10-13T11:35:06.107Z,23.60
2022-10-13T11:38:06.033Z,23.75
2022-10-13T11:40:36.577Z,23.93
2022-10-13T11:43:26.055Z,24.00
2022-10-13T11:46:08.857Z,24.27
2022-10-13T11:49:03.677Z,24.39
2022-10-13T11:51:32.778Z,24.57
2022-10-13T11:54:19.845Z,24.39
2022-10-13T11:56:53.467Z,24.47
2022-10-13T11:59:27.926Z,24.60
2022-10-13T12:01:59.466Z,24.65
2022-10-13T12:04:28.698Z,24.86
2022-10-13T12:07:01.977Z,25.00
2022-10-13T12:09:31.606Z,25.19
2022-10-13T12:12:07.626Z,25.38
2022-10-13T12:14:43.675Z,25.36
2022-10-13T12:17:33.116Z,25.62
2022-10-13T12:20:19.571Z,25.68
2022-10-13T12:22:50.440Z,25.61
2022-10-13T12:25:23.277Z,25.76
2022-10-13T12:27:56.039Z,25.67
2022-10-13T12:30:26.881Z,25.86
2022-10-13T12:32:56.766Z,25.83
2022-10-13T12:35:34.790Z,25.66
2022-10-13T12:38:03.526Z,25.87
2022-10-13T12:40:34.677Z,26.01
2022-10-13T12:43:04.033Z,26.02
2022-10-13T12:45:34.624Z,25.90
2022-10-13T12:48:01.600Z,26.01
2022-10-13T12:50:28.477Z,25.88
2022-10-13T12:53:03.717Z,26.14
2022-10-13T12:55:32.047Z,26.12
2022-10-13T12:57:59.644Z,26.15
2022-10-13T13:00:29.399Z,26.02
2022-10-13T13:03:02.356Z,25.98
2022-10-13T13:05:31.447Z,26.02
2022-10-13T13:08:03.646Z,26.01
2022-10-13T13:10:31.345Z,26.15
2022-10-13T13:13:14.525Z,26.58
2022-10-13T13:15:41.756Z,26.88
2022-10-13T13:18:27.076Z,27.40
2022-10-13T13:20:55.331Z,27.89
2022-10-13T13:23:23.648Z,28.35
2022-10-13T13:26:15.577Z,28.76
2022-10-13T13:28:46.351Z,29.49
2022-10-13T13:31:15.061Z,29.94
2022-10-13T13:33:42.114Z,30.40
2022-10-13T13:36:18.441Z,30.37
2022-10-13T13:38:47.537Z,31.21
2022-10-13T13:41:15.877Z,31.34
2022-10-13T13:43:43.059Z,31.54
2022-10-13T13:46:23.644Z,31.75
2022-10-13T13:48:51.213Z,31.13
2022-10-13T13:51:18.665Z,31.93
2022-10-13T13:53:46.108Z,31.73
2022-10-13T13:56:15.003Z,31.80
2022-10-13T13:58:42.334Z,32.01
2022-10-13T14:01:09.549Z,32.17
2022-10-13T14:03:36.576Z,31.90
2022-10-13T14:06:06.236Z,31.19
2022-10-13T14:08:34.254Z,30.39
2022-10-13T14:11:01.347Z,29.37
2022-10-13T14:13:28.279Z,28.45
2022-10-13T14:15:58.695Z,27.55
2022-10-13T14:18:26.170Z,26.82
2022-10-13T14:20:53.099Z,26.25
2022-10-13T14:23:20.098Z,25.58
2022-10-13T14:25:47.043Z,25.17
2022-10-13T14:28:18.061Z,24.69
2022-10-13T14:30:45.645Z,24.36
2022-10-13T14:33:12.609Z,23.96
2022-10-13T14:35:39.525Z,23.73
2022-10-13T14:38:11.513Z,23.49
2022-10-13T14:40:43.188Z,23.10
2022-10-13T14:43:10.196Z,22.92
2022-10-13T14:45:37.187Z,22.73
2022-10-13T14:48:04.376Z,22.45
2022-10-13T14:50:31.551Z,22.27
2022-10-13T14:52:58.592Z,22.09
2022-10-13T14:55:27.854Z,21.97
2022-10-13T14:57:54.848Z,21.85
2022-10-13T15:00:21.873Z,21.62
2022-10-13T15:02:48.957Z,21.43
2022-10-13T15:05:16.015Z,21.32
2022-10-13T15:07:42.982Z,21.18
2022-10-13T15:10:10.170Z,20.94
2022-10-13T15:12:37.222Z,20.96
2022-10-13T15:15:04.650Z,20.82
2022-10-13T15:17:33.445Z,20.75
2022-10-13T15:20:00.691Z,20.63
2022-10-13T15:22:27.748Z,20.56
2022-10-13T15:24:54.763Z,20.47
2022-10-13T15:27:21.750Z,20.38
2022-10-13T15:29:48.786Z,20.32
2022-10-13T15:32:18.607Z,20.25
2022-10-13T15:34:50.540Z,20.19
2022-10-13T15:37:17.566Z,20.15
2022-10-13T15:39:44.595Z,20.01
2022-10-13T15:42:12.108Z,19.92
2022-10-13T15:47:26.107Z,19.68
2022-10-13T15:49:53.116Z,19.64
2022-10-13T15:52:20.598Z,19.57
2022-10-13T15:54:51.612Z,19.50
2022-10-13T15:57:18.734Z,19.45
2022-10-13T15:59:45.639Z,19.41
2022-10-13T16:02:12.638Z,19.39
2022-10-13T16:04:39.676Z,19.36
2022-10-13T16:07:06.576Z,19.34
2022-10-13T16:09:33.634Z,19.34
2022-10-13T16:12:00.576Z,19.32
2022-10-13T16:14:27.733Z,19.30
2022-10-13T16:16:54.736Z,19.27
2022-10-13T16:19:21.855Z,19.22
2022-10-13T16:21:48.885Z,19.20
2022-10-13T16:24:15.972Z,19.16
2022-10-13T16:26:43.156Z,19.13
2022-10-13T16:29:10.165Z,19.13
2022-10-13T16:31:37.127Z,19.11
2022-10-13T16:34:04.236Z,19.09
2022-10-13T16:36:31.494Z,19.04
2022-10-13T16:38:59.176Z,19.03
2022-10-13T16:41:26.292Z,18.98
2022-10-13T16:43:53.657Z,18.96
2022-10-13T16:46:21.036Z,18.94
2022-10-13T16:48:48.371Z,18.95
2022-10-13T16:51:18.568Z,18.93
2022-10-13T16:53:54.036Z,18.91
2022-10-13T16:56:25.125Z,18.91
2022-10-13T16:59:01.033Z,18.89
2022-10-13T17:01:29.338Z,18.82
2022-10-13T17:03:56.686Z,18.77
2022-10-13T17:06:26.595Z,18.73
2022-10-13T17:09:00.728Z,18.71
2022-10-13T17:11:30.916Z,18.70
2022-10-13T17:13:59.508Z,18.67
2022-10-13T17:16:30.834Z,18.65
2022-10-13T17:18:57.906Z,18.63
2022-10-13T17:21:33.355Z,18.59
2022-10-13T17:24:00.477Z,18.53
2022-10-13T17:26:27.508Z,18.52
2022-10-13T17:28:55.389Z,18.45
2022-10-13T17:31:24.066Z,18.43
2022-10-13T17:33:51.965Z,18.39
2022-10-13T17:36:24.325Z,18.35
2022-10-13T17:38:52.645Z,18.29
2022-10-13T17:41:20.217Z,18.27
2022-10-13T17:43:51.658Z,18.23
2022-10-13T17:46:38.397Z,18.19
2022-10-13T17:49:11.822Z,18.11
2022-10-13T17:51:42.747Z,18.09
2022-10-13T17:54:15.721Z,18.02
2022-10-13T17:56:44.216Z,18.00
2022-10-13T17:59:11.418Z,17.97
2022-10-13T18:01:38.584Z,17.92
2022-10-13T18:04:08.754Z,17.87
2022-10-13T18:06:41.126Z,17.85
2022-10-13T18:09:14.795Z,17.76
2022-10-13T18:11:48.767Z,17.73
2022-10-13T18:14:17.815Z,17.69
2022-10-13T18:16:44.866Z,17.64
2022-10-13T18:19:13.275Z,17.62
2022-10-13T18:21:40.425Z,17.58
2022-10-13T18:24:09.215Z,17.52
2022-10-13T18:26:36.258Z,17.47
2022-10-13T18:29:06.237Z,17.46
2022-10-13T18:31:35.820Z,17.43
2022-10-13T18:34:06.066Z,17.40
2022-10-13T18:36:56.715Z,17.31
2022-10-13T18:39:26.696Z,17.30
2022-10-13T18:41:55.417Z,17.24
2022-10-13T18:44:23.862Z,17.20
2022-10-13T18:46:52.388Z,17.17
2022-10-13T18:49:23.415Z,17.10
2022-10-13T18:51:51.897Z,17.04
2022-10-13T18:54:19.009Z,17.03
2022-10-13T18:56:45.997Z,16.98
2022-10-13T18:59:12.994Z,16.91
2022-10-13T19:01:41.176Z,16.87
2022-10-13T19:04:08.828Z,16.82
2022-10-13T19:06:35.805Z,16.80
2022-10-13T19:09:06.296Z,16.71
2022-10-13T19:11:36.571Z,16.67
2022-10-13T19:14:05.745Z,16.64
2022-10-13T19:16:37.075Z,16.61
2022-10-13T19:19:04.592Z,16.57
2022-10-13T19:21:33.003Z,16.56
2022-10-13T19:24:00.390Z,16.52
2022-10-13T19:26:30.840Z,16.53
2022-10-13T19:29:00.401Z,16.48
2022-10-13T19:31:29.627Z,16.44
2022-10-13T19:33:57.149Z,16.38
2022-10-13T19:36:37.664Z,16.31
2022-10-13T19:39:07.822Z,16.28
2022-10-13T19:41:35.376Z,16.26
2022-10-13T19:44:03.145Z,16.19
2022-10-13T19:46:39.475Z,16.12
2022-10-13T19:49:06.785Z,16.11
2022-10-13T19:51:35.704Z,16.08
2022-10-13T19:54:03.158Z,16.07
2022-10-13T19:56:31.897Z,16.07
2022-10-13T19:58:59.117Z,16.02
2022-10-13T20:01:26.281Z,16.04
2022-10-13T20:03:53.434Z,15.98
2022-10-13T20:06:21.106Z,15.96
2022-10-13T20:08:48.871Z,15.95
2022-10-13T20:11:24.170Z,15.94
2022-10-13T20:13:52.577Z,15.91
2022-10-13T20:16:22.285Z,15.92
2022-10-13T20:18:58.036Z,15.94
2022-10-13T20:21:27.061Z,15.95
2022-10-13T20:23:54.371Z,15.99
2022-10-13T20:26:21.920Z,15.99
2022-10-13T20:28:50.499Z,16.01
2022-10-13T20:31:19.494Z,16.02
2022-10-13T20:33:47.246Z,16.02
2022-10-13T20:36:16.687Z,16.03
2022-10-13T20:38:43.733Z,16.04
2022-10-13T20:41:15.527Z,16.05
2022-10-13T20:43:42.988Z,16.08
2022-10-13T20:46:10.499Z,16.06
2022-10-13T20:51:26.991Z,16.04
2022-10-13T20:53:54.016Z,16.01
2022-10-13T20:56:23.666Z,15.97
2022-10-13T20:58:51.286Z,15.95
2022-10-13T21:01:19.989Z,15.87
2022-10-13T21:03:47.106Z,15.83
2022-10-13T21:06:14.836Z,15.74
2022-10-13T21:08:45.895Z,15.73
2022-10-13T21:11:14.682Z,15.68
2022-10-13T21:13:44.709Z,15.65
2022-10-13T21:16:17.236Z,15.60
2022-10-13T21:18:48.259Z,15.53
2022-10-13T21:21:17.118Z,15.48
2022-10-13T21:23:44.096Z,15.47
2022-10-13T21:26:14.371Z,15.44
2022-10-13T21:28:44.612Z,15.35
2022-10-13T21:31:14.057Z,15.34
2022-10-13T21:33:42.185Z,15.35
2022-10-13T21:36:10.048Z,15.16
2022-10-13T21:38:37.386Z,15.18
2022-10-13T21:41:05.885Z,15.22
2022-10-13T21:43:33.787Z,15.27
2022-10-13T21:46:15.272Z,15.31
2022-10-13T21:48:46.746Z,15.36
2022-10-13T21:51:20.014Z,15.42
2022-10-13T21:53:51.985Z,15.42
2022-10-13T21:56:19.646Z,15.48
2022-10-13T21:58:47.605Z,15.50
2022-10-13T22:01:15.756Z,15.49
2022-10-13T22:03:43.128Z,15.51
2022-10-13T22:06:19.083Z,15.52
2022-10-13T22:08:48.968Z,15.52
2022-10-13T22:11:22.577Z,15.54
2022-10-13T22:13:49.568Z,15.57
2022-10-13T22:16:22.586Z,15.62
2022-10-13T22:18:53.137Z,15.64
2022-10-13T22:21:23.113Z,15.63
2022-10-13T22:23:50.084Z,15.65
2022-10-13T22:26:18.429Z,15.66
2022-10-13T22:28:48.386Z,15.68
2022-10-13T22:31:15.490Z,15.70
2022-10-13T22:33:43.506Z,15.73
2022-10-13T22:36:14.699Z,15.74
2022-10-13T22:38:42.746Z,15.75
2022-10-13T22:41:10.487Z,15.77
2022-10-13T22:43:37.786Z,15.79
2022-10-13T22:46:13.066Z,15.80
2022-10-13T22:48:41.117Z,15.83
2022-10-13T22:51:16.757Z,15.82
2022-10-13T22:53:44.925Z,15.85
2022-10-13T22:56:15.757Z,15.77
2022-10-13T22:58:42.819Z,15.81
2022-10-13T23:01:15.046Z,15.81
2022-10-13T23:03:42.227Z,15.82
2022-10-13T23:06:13.953Z,15.80
2022-10-13T23:08:41.295Z,15.71
2022-10-13T23:11:08.352Z,15.75
2022-10-13T23:13:35.707Z,15.71
2022-10-13T23:16:03.493Z,15.71
2022-10-13T23:18:34.435Z,15.72
2022-10-13T23:21:08.865Z,15.71
2022-10-13T23:23:35.928Z,15.73
2022-10-13T23:26:04.815Z,15.77
2022-10-13T23:28:32.954Z,15.77
2022-10-13T23:31:06.993Z,15.72
2022-10-13T23:33:33.999Z,15.72
2022-10-13T23:36:01.924Z,15.73
2022-10-13T23:38:30.494Z,15.72
2022-10-13T23:41:09.655Z,15.64
2022-10-13T23:43:38.373Z,15.57
2022-10-13T23:46:05.456Z,15.57
2022-10-13T23:48:32.553Z,15.52
2022-10-13T23:51:05.134Z,15.52
2022-10-13T23:53:35.663Z,15.46
2022-10-13T23:56:04.603Z,15.40
2022-10-13T23:58:32.194Z,15.38
